createdAt,value
2018-11-14T00:00:24.963Z,8.23
2018-11-14T00:02:53.923Z,9.17
2018-11-14T00:05:22.921Z,8.13
2018-11-14T00:07:52.389Z,8.73
2018-11-14T00:10:21.539Z,10.43
2018-11-14T00:12:50.588Z,11.87
2018-11-14T00:15:21.507Z,10.57
2018-11-14T00:17:51.243Z,9.53
2018-11-14T00:20:20.224Z,12.03
2018-11-14T00:22:49.863Z,11.47
2018-11-14T00:25:18.937Z,11.50
2018-11-14T00:27:48.117Z,11.37
2018-11-14T00:30:19.314Z,9.90
2018-11-14T00:32:47.703Z,10.93
2018-11-14T00:35:18.139Z,10.90
2018-11-14T00:37:47.499Z,9.00
2018-11-14T00:40:17.311Z,9.60
2018-11-14T00:42:47.369Z,9.00
2018-11-14T00:45:18.286Z,9.73
2018-11-14T00:47:48.751Z,11.20
2018-11-14T00:50:18.575Z,14.67
2018-11-14T00:52:47.738Z,10.93
2018-11-14T00:55:21.411Z,10.10
2018-11-14T00:57:51.601Z,10.40
2018-11-14T01:00:22.804Z,11.87
2018-11-14T01:02:51.823Z,9.87
2018-11-14T01:05:20.732Z,13.20
2018-11-14T01:07:49.570Z,10.93
2018-11-14T01:10:19.802Z,12.67
2018-11-14T01:12:49.278Z,12.10
2018-11-14T01:15:20.194Z,12.93
2018-11-14T01:17:48.870Z,11.60
2018-11-14T01:20:18.996Z,12.33
2018-11-14T01:22:48.132Z,13.97
2018-11-14T01:25:17.815Z,11.57
2018-11-14T01:27:47.000Z,10.17
2018-11-14T01:30:17.983Z,9.93
2018-11-14T01:32:47.721Z,10.00
2018-11-14T01:35:17.152Z,9.60
2018-11-14T01:37:45.906Z,13.83
2018-11-14T01:40:18.436Z,11.97
2018-11-14T01:42:51.573Z,12.90
2018-11-14T01:45:20.635Z,10.33
2018-11-14T01:47:49.931Z,9.53
2018-11-14T01:50:18.948Z,10.87
2018-11-14T01:52:48.026Z,10.20
2018-11-14T01:55:17.903Z,12.03
2018-11-14T01:57:47.075Z,9.67
2018-11-14T02:00:17.993Z,10.60
2018-11-14T02:02:47.126Z,9.80
2018-11-14T02:05:16.388Z,9.97
2018-11-14T02:07:45.447Z,9.90
2018-11-14T02:10:16.036Z,10.33
2018-11-14T02:12:45.480Z,10.47
2018-11-14T02:15:17.996Z,9.27
2018-11-14T02:17:46.909Z,10.17
2018-11-14T02:20:15.754Z,10.47
2018-11-14T02:22:45.330Z,10.40
2018-11-14T02:25:14.802Z,10.60
2018-11-14T02:27:43.740Z,11.03
2018-11-14T02:30:16.732Z,12.17
2018-11-14T02:32:45.639Z,12.47
2018-11-14T02:35:14.639Z,11.37
2018-11-14T02:37:44.332Z,10.53
2018-11-14T02:40:14.574Z,10.20
2018-11-14T02:42:43.835Z,10.97
2018-11-14T02:45:13.051Z,10.93
2018-11-14T02:47:41.937Z,10.77
2018-11-14T02:50:12.425Z,9.83
2018-11-14T02:52:41.530Z,10.77
2018-11-14T02:55:11.628Z,9.73
2018-11-14T02:57:40.545Z,9.07
2018-11-14T03:00:12.468Z,10.27
2018-11-14T03:02:41.521Z,9.67
2018-11-14T03:05:10.442Z,10.47
2018-11-14T03:07:39.553Z,10.03
2018-11-14T03:10:11.529Z,9.43
2018-11-14T03:12:40.780Z,10.20
2018-11-14T03:15:11.650Z,10.33
2018-11-14T03:17:40.576Z,9.13
2018-11-14T03:20:11.478Z,8.97
2018-11-14T03:22:40.478Z,9.83
2018-11-14T03:25:10.296Z,9.70
2018-11-14T03:27:39.232Z,9.47
2018-11-14T03:30:11.038Z,11.20
2018-11-14T03:32:40.575Z,10.20
2018-11-14T03:35:10.319Z,10.17
2018-11-14T03:37:39.553Z,9.97
2018-11-14T03:40:09.852Z,9.13
2018-11-14T03:42:38.861Z,9.33
2018-11-14T03:45:08.613Z,8.83
2018-11-14T03:47:37.764Z,9.70
2018-11-14T03:50:07.123Z,8.80
2018-11-14T03:52:36.067Z,9.50
2018-11-14T03:55:04.973Z,8.97
2018-11-14T03:57:33.836Z,10.03
2018-11-14T04:00:02.774Z,9.43
2018-11-14T04:02:31.681Z,9.73
2018-11-14T04:05:00.504Z,9.67
2018-11-14T04:07:29.399Z,9.57
2018-11-14T04:09:58.310Z,10.30
2018-11-14T04:12:27.313Z,9.43
2018-11-14T04:14:56.291Z,9.20
2018-11-14T04:17:25.125Z,9.23
2018-11-14T04:19:54.138Z,9.43
2018-11-14T04:22:23.026Z,9.93
2018-11-14T04:24:51.989Z,9.83
2018-11-14T04:27:21.110Z,10.43
2018-11-14T04:29:49.857Z,10.10
2018-11-14T04:32:18.677Z,10.20
2018-11-14T04:34:47.625Z,12.20
2018-11-14T04:37:16.510Z,14.53
2018-11-14T04:39:45.420Z,11.20
2018-11-14T04:42:14.341Z,13.77
2018-11-14T04:44:43.134Z,15.17
2018-11-14T04:47:12.064Z,12.20
2018-11-14T04:49:40.866Z,9.40
2018-11-14T04:52:09.778Z,9.33
2018-11-14T04:54:38.652Z,11.33
2018-11-14T04:57:07.483Z,8.30
2018-11-14T04:59:36.312Z,10.23
2018-11-14T05:02:05.467Z,11.20
2018-11-14T05:04:34.289Z,10.27
2018-11-14T05:07:03.180Z,9.73
2018-11-14T05:09:32.072Z,9.53
2018-11-14T05:12:00.985Z,9.77
2018-11-14T05:14:30.109Z,9.40
2018-11-14T05:16:58.993Z,9.40
2018-11-14T05:19:27.808Z,9.57
2018-11-14T05:21:56.506Z,9.23
2018-11-14T05:24:25.432Z,10.27
2018-11-14T05:26:54.409Z,8.83
2018-11-14T05:29:23.298Z,8.20
2018-11-14T05:31:52.255Z,9.17
2018-11-14T05:34:21.137Z,9.23
2018-11-14T05:36:50.018Z,8.47
2018-11-14T05:39:18.934Z,8.73
2018-11-14T05:41:47.611Z,9.07
2018-11-14T05:44:16.623Z,8.93
2018-11-14T05:46:46.539Z,9.97
2018-11-14T05:49:15.568Z,9.10
2018-11-14T05:51:44.499Z,9.23
2018-11-14T05:54:14.439Z,9.97
2018-11-14T05:56:43.474Z,9.07
2018-11-14T05:59:12.616Z,8.13
2018-11-14T06:01:41.789Z,8.97
2018-11-14T06:04:11.376Z,8.57
2018-11-14T06:06:40.399Z,8.23
2018-11-14T06:09:11.022Z,8.33
2018-11-14T06:11:39.928Z,9.93
2018-11-14T06:14:09.282Z,9.17
2018-11-14T06:16:38.032Z,9.67
2018-11-14T06:19:06.907Z,10.50
2018-11-14T06:21:36.517Z,9.13
2018-11-14T06:24:05.768Z,8.23
2018-11-14T06:26:35.196Z,9.17
2018-11-14T06:29:04.144Z,9.20
2018-11-14T06:31:33.059Z,9.37
2018-11-14T06:34:01.869Z,8.87
2018-11-14T06:36:30.679Z,11.03
2018-11-14T06:38:59.535Z,8.80
2018-11-14T06:41:28.417Z,7.90
2018-11-14T06:43:57.601Z,8.43
2018-11-14T06:46:26.494Z,8.73
2018-11-14T06:48:55.367Z,8.50
2018-11-14T06:51:24.120Z,11.73
2018-11-14T06:53:53.108Z,15.43
2018-11-14T06:56:21.872Z,15.87
2018-11-14T06:58:50.888Z,9.13
2018-11-14T07:01:19.689Z,9.93
2018-11-14T07:03:48.660Z,12.70
2018-11-14T07:06:17.505Z,10.47
2018-11-14T07:08:46.527Z,14.40
2018-11-14T07:11:15.577Z,10.40
2018-11-14T07:13:44.549Z,7.13
2018-11-14T07:16:13.556Z,8.57
2018-11-14T07:18:42.643Z,7.63
2018-11-14T07:21:11.493Z,7.80
2018-11-14T07:23:40.303Z,6.53
2018-11-14T07:26:09.131Z,5.63
2018-11-14T07:28:38.182Z,5.37
2018-11-14T07:31:07.075Z,5.67
2018-11-14T07:33:35.949Z,6.10
2018-11-14T07:36:04.862Z,5.23
2018-11-14T07:38:41.405Z,5.27
2018-11-14T07:41:12.695Z,5.60
2018-11-14T07:43:41.955Z,5.40
2018-11-14T07:46:11.409Z,5.57
2018-11-14T07:48:40.502Z,5.30
2018-11-14T07:51:09.272Z,5.80
2018-11-14T07:53:38.271Z,6.20
2018-11-14T07:56:07.209Z,5.07
2018-11-14T07:58:36.266Z,4.60
2018-11-14T08:01:05.360Z,4.87
2018-11-14T08:03:34.307Z,4.60
2018-11-14T08:06:03.304Z,5.50
2018-11-14T08:08:32.161Z,5.40
2018-11-14T08:11:01.217Z,5.40
2018-11-14T08:13:31.085Z,5.83
2018-11-14T08:16:00.767Z,5.37
2018-11-14T08:18:29.733Z,4.90
2018-11-14T08:20:59.297Z,5.33
2018-11-14T08:23:28.169Z,5.10
2018-11-14T08:25:57.121Z,4.92
2018-11-14T08:28:25.927Z,5.22
2018-11-14T08:30:54.780Z,5.43
2018-11-14T08:33:23.506Z,5.37
2018-11-14T08:35:52.395Z,6.25
2018-11-14T08:38:21.301Z,5.23
2018-11-14T08:40:50.400Z,4.80
2018-11-14T08:43:19.180Z,4.97
2018-11-14T08:45:48.096Z,5.08
2018-11-14T08:48:17.015Z,4.65
2018-11-14T08:50:46.010Z,4.90
2018-11-14T08:53:15.043Z,4.83
2018-11-14T08:55:43.999Z,4.90
2018-11-14T08:58:13.660Z,5.45
2018-11-14T09:00:42.686Z,4.83
2018-11-14T09:03:13.026Z,4.87
2018-11-14T09:05:41.865Z,5.47
2018-11-14T09:08:10.787Z,5.12
2018-11-14T09:10:39.585Z,5.40
2018-11-14T09:13:12.966Z,5.47
2018-11-14T09:15:41.942Z,5.45
2018-11-14T09:18:10.946Z,4.62
2018-11-14T09:20:39.968Z,5.55
2018-11-14T09:23:08.933Z,5.33
2018-11-14T09:25:37.873Z,4.87
2018-11-14T09:28:06.774Z,5.22
2018-11-14T09:30:35.559Z,5.45
2018-11-14T09:33:04.439Z,4.70
2018-11-14T09:35:33.349Z,5.30
2018-11-14T09:38:02.259Z,5.80
2018-11-14T09:40:31.392Z,5.12
2018-11-14T09:43:00.392Z,5.42
2018-11-14T09:45:30.230Z,5.70
2018-11-14T09:47:59.222Z,5.17
2018-11-14T09:50:29.368Z,5.60
2018-11-14T09:52:59.541Z,5.37
2018-11-14T09:55:28.341Z,5.75
2018-11-14T09:57:57.200Z,5.92
2018-11-14T10:00:27.346Z,5.08
2018-11-14T10:02:57.990Z,4.80
2018-11-14T10:05:26.765Z,5.00
2018-11-14T10:07:55.663Z,5.20
2018-11-14T10:10:24.766Z,5.85
2018-11-14T10:12:53.756Z,5.03
2018-11-14T10:15:23.943Z,4.92
2018-11-14T10:17:52.900Z,5.12
2018-11-14T10:20:22.779Z,5.55
2018-11-14T10:22:51.758Z,4.90
2018-11-14T10:25:20.878Z,5.22
2018-11-14T10:27:50.384Z,5.17
2018-11-14T10:30:21.453Z,5.40
2018-11-14T10:32:50.851Z,4.95
2018-11-14T10:35:19.818Z,4.67
2018-11-14T10:37:48.710Z,5.28
2018-11-14T10:40:19.646Z,4.62
2018-11-14T10:42:48.596Z,5.05
2018-11-14T10:45:18.750Z,4.95
2018-11-14T10:47:48.308Z,4.83
2018-11-14T10:50:19.579Z,5.50
2018-11-14T10:52:48.385Z,5.55
2018-11-14T10:55:17.570Z,5.37
2018-11-14T10:57:46.413Z,4.65
2018-11-14T11:00:21.706Z,5.22
2018-11-14T11:02:55.803Z,5.47
2018-11-14T11:05:29.869Z,4.92
2018-11-14T11:08:04.103Z,5.28
2018-11-14T11:10:37.996Z,4.78
2018-11-14T11:13:15.974Z,4.83
2018-11-14T11:15:50.400Z,5.30
2018-11-14T11:18:20.366Z,5.28
2018-11-14T11:20:49.249Z,4.35
2018-11-14T11:23:18.203Z,5.47
2018-11-14T11:25:47.172Z,4.12
2018-11-14T11:28:16.180Z,4.97
2018-11-14T11:30:45.240Z,4.25
2018-11-14T11:33:13.976Z,5.12
2018-11-14T11:35:43.015Z,4.65
2018-11-14T11:38:11.937Z,4.17
2018-11-14T11:40:40.804Z,5.28
2018-11-14T11:43:09.693Z,4.10
2018-11-14T11:45:38.568Z,4.30
2018-11-14T11:48:07.635Z,4.12
2018-11-14T11:50:36.916Z,4.55
2018-11-14T11:53:05.935Z,4.10
2018-11-14T11:55:34.915Z,4.15
2018-11-14T11:58:03.917Z,3.80
2018-11-14T12:00:33.170Z,3.83
2018-11-14T12:03:01.921Z,3.83
2018-11-14T12:05:30.918Z,4.00
2018-11-14T12:07:59.716Z,4.00
2018-11-14T12:10:28.793Z,3.92
2018-11-14T12:12:57.984Z,3.83
2018-11-14T12:15:26.861Z,4.17
2018-11-14T12:17:55.934Z,3.75
2018-11-14T12:20:24.888Z,3.98
2018-11-14T12:22:53.691Z,3.95
2018-11-14T12:25:22.606Z,3.92
2018-11-14T12:27:51.611Z,3.70
2018-11-14T12:30:20.403Z,3.20
2018-11-14T12:32:49.360Z,3.22
2018-11-14T12:35:18.543Z,3.70
2018-11-14T12:37:47.290Z,3.40
2018-11-14T12:40:16.138Z,3.60
2018-11-14T12:42:45.114Z,3.30
2018-11-14T12:45:15.354Z,3.30
2018-11-14T12:47:44.161Z,3.95
2018-11-14T12:50:13.864Z,3.25
2018-11-14T12:52:43.279Z,3.22
2018-11-14T12:55:16.780Z,3.52
2018-11-14T12:57:45.770Z,3.42
2018-11-14T13:00:16.403Z,3.70
2018-11-14T13:02:45.251Z,3.93
2018-11-14T13:05:14.696Z,3.37
2018-11-14T13:07:44.965Z,4.33
2018-11-14T13:10:15.862Z,4.27
2018-11-14T13:12:47.135Z,3.67
2018-11-14T13:15:17.120Z,4.00
2018-11-14T13:17:45.854Z,3.83
2018-11-14T13:20:17.221Z,4.07
2018-11-14T13:22:46.288Z,3.70
2018-11-14T13:25:15.796Z,4.17
2018-11-14T13:27:45.698Z,3.57
2018-11-14T13:30:22.836Z,2.90
2018-11-14T13:32:52.216Z,2.47
2018-11-14T13:35:22.088Z,2.23
2018-11-14T13:37:51.484Z,2.70
2018-11-14T13:40:20.472Z,2.17
2018-11-14T13:42:49.413Z,2.67
2018-11-14T13:45:19.123Z,2.53
2018-11-14T13:47:48.013Z,2.90
2018-11-14T13:50:18.922Z,2.60
2018-11-14T13:52:47.693Z,2.20
2018-11-14T13:55:17.649Z,2.73
2018-11-14T13:57:47.646Z,2.37
2018-11-14T14:00:19.742Z,2.07
2018-11-14T14:02:49.477Z,2.43
2018-11-14T14:05:19.434Z,2.50
2018-11-14T14:07:48.261Z,2.03
2018-11-14T14:10:17.707Z,2.63
2018-11-14T14:12:48.684Z,2.07
2018-11-14T14:15:21.848Z,2.33
2018-11-14T14:17:51.191Z,2.10
2018-11-14T14:20:20.567Z,2.70
2018-11-14T14:22:49.469Z,2.60
2018-11-14T14:25:19.548Z,2.10
2018-11-14T14:27:48.493Z,2.30
2018-11-14T14:30:18.789Z,2.40
2018-11-14T14:32:47.960Z,2.80
2018-11-14T14:35:19.301Z,2.23
2018-11-14T14:37:48.209Z,2.20
2018-11-14T14:40:21.229Z,2.60
2018-11-14T14:42:50.007Z,2.20
2018-11-14T14:45:21.508Z,2.33
2018-11-14T14:47:50.936Z,2.17
2018-11-14T14:50:20.338Z,2.23
2018-11-14T14:52:50.264Z,2.17
2018-11-14T14:55:22.828Z,2.10
2018-11-14T14:57:51.661Z,2.00
2018-11-14T15:00:23.756Z,2.37
2018-11-14T15:02:52.750Z,2.37
2018-11-14T15:05:21.624Z,3.00
2018-11-14T15:07:50.592Z,2.37
2018-11-14T15:10:21.576Z,2.30
2018-11-14T15:12:50.685Z,3.03
2018-11-14T15:15:19.857Z,3.20
2018-11-14T15:17:50.312Z,2.93
2018-11-14T15:20:20.807Z,2.80
2018-11-14T15:22:49.927Z,2.93
2018-11-14T15:25:20.455Z,2.70
2018-11-14T15:27:49.824Z,2.83
2018-11-14T15:30:22.376Z,2.83
2018-11-14T15:32:51.553Z,2.50
2018-11-14T15:35:20.981Z,2.80
2018-11-14T15:37:49.840Z,2.97
2018-11-14T15:40:22.057Z,2.83
2018-11-14T15:43:21.996Z,3.30
2018-11-14T15:45:50.881Z,3.20
2018-11-14T15:48:19.838Z,2.90
2018-11-14T15:50:48.704Z,3.17
2018-11-14T15:53:17.571Z,2.97
2018-11-14T15:55:52.369Z,3.07
2018-11-14T15:58:21.304Z,3.43
2018-11-14T16:00:50.259Z,3.10
2018-11-14T16:03:19.302Z,2.90
2018-11-14T16:05:48.766Z,2.70
2018-11-14T16:08:17.729Z,3.00
2018-11-14T16:10:46.546Z,2.83
2018-11-14T16:13:16.270Z,2.80
2018-11-14T16:15:45.810Z,2.90
2018-11-14T16:18:15.053Z,2.80
2018-11-14T16:20:44.036Z,2.97
2018-11-14T16:23:13.080Z,2.67
2018-11-14T16:25:49.326Z,2.23
2018-11-14T16:28:24.652Z,2.50
2018-11-14T16:31:00.207Z,2.70
2018-11-14T16:33:29.809Z,3.33
2018-11-14T16:36:01.723Z,2.60
2018-11-14T16:38:37.366Z,2.47
2018-11-14T16:41:06.576Z,2.57
2018-11-14T16:43:36.579Z,2.40
2018-11-14T16:46:05.461Z,2.50
2018-11-14T16:48:34.603Z,2.43
2018-11-14T16:51:03.641Z,2.93
2018-11-14T16:53:32.709Z,2.93
2018-11-14T16:56:01.685Z,2.50
2018-11-14T16:58:30.671Z,2.87
2018-11-14T17:01:07.539Z,3.33
2018-11-14T17:03:36.774Z,3.00
2018-11-14T17:06:05.785Z,3.37
2018-11-14T17:08:40.445Z,3.20
2018-11-14T17:11:09.497Z,3.00
2018-11-14T17:13:38.542Z,3.23
2018-11-14T17:16:07.493Z,2.90
2018-11-14T17:18:36.520Z,2.33
2018-11-14T17:21:07.755Z,2.20
2018-11-14T17:23:36.663Z,2.70
2018-11-14T17:26:11.112Z,2.60
2018-11-14T17:28:39.973Z,2.57
2018-11-14T17:31:08.913Z,3.07
2018-11-14T17:33:38.128Z,2.73
2018-11-14T17:36:08.868Z,3.03
2018-11-14T17:38:37.659Z,2.47
2018-11-14T17:41:06.720Z,3.07
2018-11-14T17:43:35.799Z,2.83
2018-11-14T17:46:05.282Z,2.10
2018-11-14T17:48:34.400Z,3.33
2018-11-14T17:51:03.293Z,2.53
2018-11-14T17:53:32.342Z,3.60
2018-11-14T17:56:01.249Z,2.97
2018-11-14T17:58:30.130Z,4.47
2018-11-14T18:00:59.103Z,2.33
2018-11-14T18:03:27.997Z,2.70
2018-11-14T18:05:56.760Z,2.73
2018-11-14T18:08:25.663Z,3.50
2018-11-14T18:10:54.838Z,3.30
2018-11-14T18:13:24.014Z,4.23
2018-11-14T18:15:53.646Z,3.70
2018-11-14T18:18:22.496Z,3.27
2018-11-14T18:20:51.463Z,3.60
2018-11-14T18:23:20.523Z,3.20
2018-11-14T18:25:49.478Z,3.43
2018-11-14T18:28:18.815Z,2.60
2018-11-14T18:30:47.919Z,3.23
2018-11-14T18:33:16.657Z,3.43
2018-11-14T18:35:45.739Z,4.53
2018-11-14T18:38:14.815Z,3.67
2018-11-14T18:40:43.811Z,4.20
2018-11-14T18:43:12.812Z,4.77
2018-11-14T18:45:42.050Z,4.27
2018-11-14T18:48:10.909Z,4.87
2018-11-14T18:50:39.780Z,6.27
2018-11-14T18:53:08.608Z,6.03
2018-11-14T18:55:37.551Z,5.40
2018-11-14T18:58:09.977Z,7.03
2018-11-14T19:00:40.575Z,6.27
2018-11-14T19:03:09.796Z,7.50
2018-11-14T19:08:20.460Z,6.70
2018-11-14T19:10:49.314Z,7.33
2018-11-14T19:13:18.115Z,7.73
2018-11-14T19:15:49.007Z,7.43
2018-11-14T19:18:17.940Z,7.87
2018-11-14T19:20:47.018Z,7.23
2018-11-14T19:23:17.731Z,8.87
2018-11-14T19:25:46.617Z,7.70
2018-11-14T19:28:17.633Z,7.13
2018-11-14T19:30:48.613Z,7.30
2018-11-14T19:33:17.583Z,7.70
2018-11-14T19:35:46.646Z,8.20
2018-11-14T19:38:15.446Z,8.00
2018-11-14T19:40:44.506Z,8.27
2018-11-14T19:43:13.375Z,8.23
2018-11-14T19:45:42.830Z,7.60
2018-11-14T19:48:11.802Z,6.97
2018-11-14T19:50:40.965Z,8.33
2018-11-14T19:53:11.206Z,7.50
2018-11-14T19:55:40.370Z,6.93
2018-11-14T19:58:11.057Z,7.53
2018-11-14T20:00:40.595Z,7.80
2018-11-14T20:03:09.899Z,8.37
2018-11-14T20:05:38.861Z,7.40
2018-11-14T20:08:07.693Z,7.53
2018-11-14T20:10:36.847Z,7.83
2018-11-14T20:13:05.693Z,7.47
2018-11-14T20:15:35.705Z,8.20
2018-11-14T20:18:04.747Z,7.43
2018-11-14T20:20:34.931Z,8.13
2018-11-14T20:23:05.920Z,8.43
2018-11-14T20:25:35.036Z,7.90
2018-11-14T20:28:03.946Z,8.67
2018-11-14T20:30:35.302Z,8.50
2018-11-14T20:33:09.349Z,8.60
2018-11-14T20:35:38.443Z,8.00
2018-11-14T20:38:07.343Z,9.10
2018-11-14T20:40:40.344Z,8.07
2018-11-14T20:43:09.396Z,8.87
2018-11-14T20:45:38.590Z,7.83
2018-11-14T20:48:07.847Z,8.53
2018-11-14T20:50:36.801Z,7.73
2018-11-14T20:53:06.077Z,8.53
2018-11-14T20:55:35.817Z,7.53
2018-11-14T20:58:04.622Z,7.53
2018-11-14T21:00:47.906Z,7.63
2018-11-14T21:03:18.665Z,9.30
2018-11-14T21:05:47.755Z,7.73
2018-11-14T21:08:18.807Z,9.33
2018-11-14T21:10:52.928Z,8.13
2018-11-14T21:13:39.786Z,8.40
2018-11-14T21:16:08.977Z,8.17
2018-11-14T21:18:43.209Z,7.73
2018-11-14T21:21:16.241Z,7.63
2018-11-14T21:23:47.206Z,7.67
2018-11-14T21:26:16.031Z,7.60
2018-11-14T21:29:28.328Z,7.20
2018-11-14T21:32:01.302Z,7.53
2018-11-14T21:34:32.254Z,8.00
2018-11-14T21:37:04.905Z,7.27
2018-11-14T21:39:34.077Z,8.00
2018-11-14T21:42:14.285Z,7.87
2018-11-14T21:44:55.616Z,7.30
2018-11-14T21:47:29.774Z,7.50
2018-11-14T21:50:00.666Z,8.13
2018-11-14T21:52:33.380Z,8.80
2018-11-14T21:55:02.624Z,8.10
2018-11-14T21:57:31.647Z,8.20
2018-11-14T22:00:00.652Z,9.50
2018-11-14T22:02:29.713Z,9.07
2018-11-14T22:05:01.119Z,8.10
2018-11-14T22:07:55.702Z,6.77
2018-11-14T22:10:27.539Z,7.90
2018-11-14T22:12:56.429Z,7.20
2018-11-14T22:15:27.025Z,8.33
2018-11-14T22:17:55.997Z,9.00
2018-11-14T22:20:25.925Z,8.87
2018-11-14T22:22:54.784Z,8.50
2018-11-14T22:25:24.709Z,10.13
2018-11-14T22:27:53.868Z,8.00
2018-11-14T22:30:27.844Z,8.23
2018-11-14T22:32:56.787Z,8.10
2018-11-14T22:35:27.416Z,7.80
2018-11-14T22:37:56.430Z,7.90
2018-11-14T22:40:26.585Z,8.30
2018-11-14T22:42:56.190Z,7.93
2018-11-14T22:45:27.417Z,7.80
2018-11-14T22:47:56.380Z,7.60
2018-11-14T22:50:25.786Z,8.53
2018-11-14T22:52:54.641Z,8.03
2018-11-14T22:55:24.450Z,7.70
2018-11-14T22:57:53.968Z,7.93
2018-11-14T23:00:25.947Z,6.97
2018-11-14T23:02:56.123Z,6.67
2018-11-14T23:05:24.966Z,8.07
2018-11-14T23:07:54.574Z,8.17
2018-11-14T23:10:24.345Z,8.20
2018-11-14T23:12:53.141Z,7.73
2018-11-14T23:15:22.801Z,8.37
2018-11-14T23:17:51.857Z,8.87
2018-11-14T23:20:20.866Z,8.37
2018-11-14T23:22:50.391Z,8.20
2018-11-14T23:25:19.910Z,9.33
2018-11-14T23:27:49.875Z,8.60
2018-11-14T23:30:19.757Z,8.67
2018-11-14T23:32:49.905Z,9.33
2018-11-14T23:35:20.618Z,7.30
2018-11-14T23:37:50.762Z,7.90
2018-11-14T23:40:19.777Z,8.23
2018-11-14T23:42:49.264Z,7.73
2018-11-14T23:45:19.019Z,8.93
2018-11-14T23:47:48.447Z,8.57
2018-11-14T23:50:19.500Z,8.33
2018-11-14T23:52:49.328Z,8.57
2018-11-14T23:55:18.823Z,8.93
2018-11-14T23:57:48.030Z,9.03
